createdAt,value
2019-01-14T00:00:25.600Z,15.93
2019-01-14T00:02:52.644Z,15.40
2019-01-14T00:05:19.648Z,13.37
2019-01-14T00:07:46.746Z,17.23
2019-01-14T00:10:13.740Z,15.63
2019-01-14T00:12:40.739Z,14.63
2019-01-14T00:15:07.890Z,15.13
2019-01-14T00:17:34.934Z,13.80
2019-01-14T00:20:01.984Z,13.33
2019-01-14T00:22:29.037Z,15.07
2019-01-14T00:24:56.079Z,12.23
2019-01-14T00:27:24.971Z,14.73
2019-01-14T00:29:52.025Z,14.17
2019-01-14T00:32:19.070Z,13.17
2019-01-14T00:34:46.117Z,11.57
2019-01-14T00:37:13.171Z,9.53
2019-01-14T00:39:40.216Z,12.90
2019-01-14T00:42:07.263Z,10.83
2019-01-14T00:44:34.209Z,13.87
2019-01-14T00:47:01.258Z,13.57
2019-01-14T00:49:28.310Z,10.77
2019-01-14T00:51:59.655Z,13.07
2019-01-14T00:54:26.703Z,12.13
2019-01-14T00:56:53.854Z,9.87
2019-01-14T00:59:21.108Z,14.70
2019-01-14T01:01:48.155Z,14.53
2019-01-14T01:04:15.210Z,11.47
2019-01-14T01:06:42.457Z,14.17
2019-01-14T01:09:09.512Z,13.93
2019-01-14T01:11:36.509Z,11.87
2019-01-14T01:14:05.347Z,12.43
2019-01-14T01:16:32.905Z,12.10
2019-01-14T01:18:59.958Z,12.33
2019-01-14T01:21:27.001Z,7.43
2019-01-14T01:23:54.050Z,16.37
2019-01-14T01:26:21.106Z,13.57
2019-01-14T01:28:48.147Z,7.07
2019-01-14T01:31:15.195Z,10.80
2019-01-14T01:33:42.249Z,16.37
2019-01-14T01:36:09.292Z,14.43
2019-01-14T01:38:36.363Z,12.33
2019-01-14T01:41:03.398Z,13.93
2019-01-14T01:43:30.853Z,13.93
2019-01-14T01:45:59.947Z,10.43
2019-01-14T01:48:27.000Z,14.87
2019-01-14T01:50:54.090Z,8.63
2019-01-14T01:53:21.089Z,12.67
2019-01-14T01:55:48.146Z,14.13
2019-01-14T01:58:15.185Z,2.50
2019-01-14T02:00:42.233Z,10.53
2019-01-14T02:03:09.287Z,15.50
2019-01-14T02:05:36.349Z,14.47
2019-01-14T02:08:03.379Z,14.03
2019-01-14T02:10:30.433Z,12.60
2019-01-14T02:12:57.476Z,15.13
2019-01-14T02:15:24.525Z,14.93
2019-01-14T02:17:51.578Z,12.97
2019-01-14T02:20:18.573Z,10.07
2019-01-14T02:22:45.573Z,14.03
2019-01-14T02:25:13.128Z,17.17
2019-01-14T02:27:40.182Z,13.23
2019-01-14T02:30:07.231Z,15.60
2019-01-14T02:32:34.599Z,13.13
2019-01-14T02:35:01.546Z,18.57
2019-01-14T02:37:28.577Z,15.13
2019-01-14T02:39:56.034Z,16.73
2019-01-14T02:42:23.087Z,16.47
2019-01-14T02:44:50.130Z,17.27
2019-01-14T02:47:17.487Z,10.83
2019-01-14T02:49:44.539Z,13.60
2019-01-14T02:52:11.583Z,16.37
2019-01-14T02:54:39.043Z,5.30
2019-01-14T02:57:05.993Z,15.23
2019-01-14T02:59:33.043Z,13.60
2019-01-14T03:02:00.495Z,10.53
2019-01-14T03:04:29.287Z,4.00
2019-01-14T03:06:58.008Z,14.57
2019-01-14T03:09:23.896Z,9.97
2019-01-14T03:11:50.940Z,11.30
2019-01-14T03:14:18.007Z,10.67
2019-01-14T03:16:45.043Z,9.60
2019-01-14T03:19:12.040Z,2.23
2019-01-14T03:21:39.236Z,12.27
2019-01-14T03:24:08.230Z,7.60
2019-01-14T03:26:35.232Z,10.43
2019-01-14T03:29:02.224Z,11.60
2019-01-14T03:31:29.275Z,9.93
2019-01-14T03:33:56.327Z,9.40
2019-01-14T03:36:23.370Z,8.73
2019-01-14T03:38:50.417Z,10.43
2019-01-14T03:41:17.474Z,8.60
2019-01-14T03:43:44.623Z,11.10
2019-01-14T03:46:11.668Z,10.50
2019-01-14T03:48:38.721Z,9.73
2019-01-14T03:51:05.770Z,12.10
2019-01-14T03:53:32.813Z,10.33
2019-01-14T03:55:59.859Z,5.07
2019-01-14T03:58:26.806Z,6.80
2019-01-14T04:00:53.857Z,7.97
2019-01-14T04:03:20.912Z,8.90
2019-01-14T04:05:47.952Z,10.67
2019-01-14T04:08:15.825Z,9.50
2019-01-14T04:10:42.867Z,10.80
2019-01-14T04:13:09.919Z,7.53
2019-01-14T04:15:36.970Z,6.57
2019-01-14T04:18:03.909Z,3.13
2019-01-14T04:20:30.963Z,4.20
2019-01-14T04:22:58.010Z,9.70
2019-01-14T04:25:25.008Z,2.27
2019-01-14T04:27:52.001Z,1.93
2019-01-14T04:30:19.669Z,3.10
2019-01-14T04:32:46.727Z,7.17
2019-01-14T04:35:13.766Z,9.40
2019-01-14T04:37:41.022Z,12.13
2019-01-14T04:40:08.585Z,4.90
2019-01-14T04:42:35.218Z,9.53
2019-01-14T04:45:02.262Z,9.93
2019-01-14T04:47:29.316Z,9.57
2019-01-14T04:50:01.277Z,6.47
2019-01-14T04:52:28.323Z,5.17
2019-01-14T04:54:55.382Z,4.03
2019-01-14T04:57:22.370Z,6.17
2019-01-14T04:59:49.370Z,8.17
2019-01-14T05:02:16.414Z,6.00
2019-01-14T05:04:43.462Z,5.57
2019-01-14T05:07:10.515Z,7.77
2019-01-14T05:09:37.558Z,5.67
2019-01-14T05:12:04.608Z,7.80
2019-01-14T05:14:31.677Z,9.60
2019-01-14T05:19:40.144Z,5.47
2019-01-14T05:22:07.139Z,8.17
2019-01-14T05:24:34.142Z,8.53
2019-01-14T05:27:01.240Z,10.13
2019-01-14T05:29:28.282Z,7.27
2019-01-14T05:31:55.639Z,9.03
2019-01-14T05:34:22.583Z,5.70
2019-01-14T05:36:51.704Z,5.20
2019-01-14T05:39:18.729Z,7.27
2019-01-14T05:41:45.779Z,7.37
2019-01-14T05:44:12.831Z,6.90
2019-01-14T05:46:48.067Z,8.37
2019-01-14T05:49:15.120Z,6.53
2019-01-14T05:51:42.152Z,7.73
2019-01-14T05:54:09.211Z,6.50
2019-01-14T05:56:36.268Z,7.07
2019-01-14T05:59:03.310Z,4.87
2019-01-14T06:01:32.465Z,8.90
2019-01-14T06:03:59.425Z,7.40
2019-01-14T06:06:26.407Z,8.00
2019-01-14T06:08:53.864Z,5.43
2019-01-14T06:11:20.860Z,5.80
2019-01-14T06:13:47.955Z,6.33
2019-01-14T06:16:15.387Z,5.30
2019-01-14T06:18:42.364Z,10.77
2019-01-14T06:21:09.341Z,7.20
2019-01-14T06:23:36.617Z,6.90
2019-01-14T06:26:03.611Z,6.90
2019-01-14T06:28:30.658Z,4.47
2019-01-14T06:30:58.010Z,7.33
2019-01-14T06:33:25.102Z,4.60
2019-01-14T06:35:54.233Z,9.73
2019-01-14T06:38:21.210Z,6.83
2019-01-14T06:40:48.252Z,3.60
2019-01-14T06:43:15.300Z,1.97
2019-01-14T06:45:42.355Z,4.00
2019-01-14T06:48:09.398Z,6.37
2019-01-14T06:50:36.446Z,6.40
2019-01-14T06:53:03.500Z,7.20
2019-01-14T06:55:30.442Z,7.30
2019-01-14T06:57:57.494Z,2.20
2019-01-14T07:00:25.357Z,2.90
2019-01-14T07:02:52.411Z,5.33
2019-01-14T07:05:19.453Z,8.50
2019-01-14T07:07:46.501Z,6.43
2019-01-14T07:10:14.478Z,8.60
2019-01-14T07:12:41.522Z,7.63
2019-01-14T07:15:08.471Z,6.90
2019-01-14T07:17:35.514Z,6.60
2019-01-14T07:20:02.563Z,7.13
2019-01-14T07:22:29.617Z,9.10
2019-01-14T07:24:56.565Z,17.77
2019-01-14T07:27:23.622Z,5.30
2019-01-14T07:29:50.658Z,7.33
2019-01-14T07:32:19.143Z,5.23
2019-01-14T07:34:46.392Z,8.33
2019-01-14T07:37:13.444Z,5.90
2019-01-14T07:39:40.490Z,7.13
2019-01-14T07:42:07.487Z,6.47
2019-01-14T07:44:34.482Z,7.17
2019-01-14T07:47:01.530Z,6.73
2019-01-14T07:49:30.174Z,7.20
2019-01-14T07:51:57.163Z,3.83
2019-01-14T07:54:24.212Z,0.87
2019-01-14T07:56:51.203Z,5.00
2019-01-14T07:59:18.207Z,9.27
2019-01-14T08:01:45.151Z,6.53
2019-01-14T08:04:12.172Z,7.10
2019-01-14T08:06:39.257Z,7.17
2019-01-14T08:09:06.297Z,5.33
2019-01-14T08:11:33.345Z,5.37
2019-01-14T08:14:00.437Z,6.27
2019-01-14T08:16:27.445Z,6.17
2019-01-14T08:18:54.490Z,8.13
2019-01-14T08:21:21.546Z,6.50
2019-01-14T08:23:48.588Z,2.73
2019-01-14T08:26:15.637Z,3.97
2019-01-14T08:28:42.665Z,1.40
2019-01-14T08:31:09.630Z,1.67
2019-01-14T08:33:36.706Z,3.27
2019-01-14T08:36:03.730Z,3.03
2019-01-14T08:38:30.775Z,9.20
2019-01-14T08:40:57.829Z,8.17
2019-01-14T08:43:24.876Z,4.83
2019-01-14T08:45:51.921Z,8.10
2019-01-14T08:48:18.975Z,8.13
2019-01-14T08:50:46.018Z,2.37
2019-01-14T08:53:13.066Z,11.53
2019-01-14T08:55:40.379Z,10.50
2019-01-14T08:58:07.473Z,12.93
2019-01-14T09:00:34.518Z,8.90
2019-01-14T09:03:01.601Z,7.83
2019-01-14T09:05:28.768Z,10.90
2019-01-14T09:07:55.874Z,15.50
2019-01-14T09:10:22.919Z,7.37
2019-01-14T09:12:49.965Z,8.47
2019-01-14T09:15:17.021Z,3.57
2019-01-14T09:17:44.086Z,13.63
2019-01-14T09:20:13.169Z,1.27
2019-01-14T09:22:40.209Z,5.47
2019-01-14T09:25:07.258Z,11.80
2019-01-14T09:27:34.311Z,8.73
2019-01-14T09:30:01.354Z,10.20
2019-01-14T09:32:28.404Z,20.03
2019-01-14T09:34:55.456Z,13.33
2019-01-14T09:37:22.509Z,15.50
2019-01-14T09:39:49.549Z,10.67
2019-01-14T09:42:16.542Z,12.83
2019-01-14T09:44:43.543Z,14.97
2019-01-14T09:47:10.712Z,10.43
2019-01-14T09:49:37.870Z,10.30
2019-01-14T09:52:05.333Z,14.07
2019-01-14T09:54:32.358Z,6.80
2019-01-14T09:56:59.400Z,15.27
2019-01-14T09:59:26.448Z,16.57
2019-01-14T10:01:55.548Z,15.23
2019-01-14T10:04:22.669Z,15.53
2019-01-14T10:06:49.574Z,17.43
2019-01-14T10:09:16.589Z,17.40
2019-01-14T10:11:43.643Z,17.17
2019-01-14T10:14:10.687Z,16.77
2019-01-14T10:16:37.740Z,18.73
2019-01-14T10:19:04.786Z,16.23
2019-01-14T10:21:32.250Z,18.00
2019-01-14T10:23:59.402Z,19.53
2019-01-14T10:26:26.444Z,18.67
2019-01-14T10:28:53.571Z,18.77
2019-01-14T10:31:20.694Z,18.97
2019-01-14T10:33:47.947Z,18.47
2019-01-14T10:36:15.043Z,13.70
2019-01-14T10:38:42.104Z,16.83
2019-01-14T10:41:09.243Z,10.80
2019-01-14T10:43:36.299Z,13.63
2019-01-14T10:46:03.341Z,15.77
2019-01-14T10:48:30.341Z,21.23
2019-01-14T10:50:57.334Z,23.23
2019-01-14T10:53:24.486Z,22.40
2019-01-14T10:55:51.535Z,19.03
2019-01-14T10:58:18.588Z,8.00
2019-01-14T11:00:45.631Z,9.00
2019-01-14T11:03:13.909Z,19.03
2019-01-14T11:05:41.060Z,22.57
2019-01-14T11:08:09.396Z,10.63
2019-01-14T11:10:36.397Z,19.70
2019-01-14T11:13:03.433Z,17.67
2019-01-14T11:15:30.489Z,15.27
2019-01-14T11:17:57.429Z,17.83
2019-01-14T11:20:25.404Z,18.37
2019-01-14T11:22:52.449Z,21.70
2019-01-14T11:25:24.257Z,10.17
2019-01-14T11:27:53.000Z,28.93
2019-01-14T11:30:20.044Z,13.50
2019-01-14T11:32:47.810Z,24.20
2019-01-14T11:35:14.861Z,7.80
2019-01-14T11:37:41.912Z,13.10
2019-01-14T11:40:08.957Z,15.77
2019-01-14T11:42:36.004Z,15.57
2019-01-14T11:45:03.058Z,23.50
2019-01-14T11:47:30.053Z,9.23
2019-01-14T11:49:56.997Z,7.80
2019-01-14T11:52:23.993Z,17.43
2019-01-14T11:54:51.049Z,30.43
2019-01-14T11:57:18.090Z,22.63
2019-01-14T11:59:45.141Z,20.03
2019-01-14T12:02:12.193Z,11.03
2019-01-14T12:04:39.237Z,24.03
2019-01-14T12:07:06.284Z,9.87
2019-01-14T12:09:33.338Z,23.27
2019-01-14T12:12:00.381Z,16.87
2019-01-14T12:14:27.383Z,9.87
2019-01-14T12:16:54.376Z,17.73
2019-01-14T12:19:21.733Z,27.83
2019-01-14T12:21:48.785Z,21.63
2019-01-14T12:24:15.782Z,26.50
2019-01-14T12:26:42.780Z,22.03
2019-01-14T12:29:09.824Z,34.00
2019-01-14T12:31:36.891Z,23.83
2019-01-14T12:34:03.928Z,30.90
2019-01-14T12:36:30.968Z,29.67
2019-01-14T12:38:58.018Z,9.53
2019-01-14T12:41:25.071Z,31.13
2019-01-14T12:43:52.115Z,34.10
2019-01-14T12:46:19.164Z,12.80
2019-01-14T12:48:46.217Z,25.87
2019-01-14T12:51:13.261Z,8.57
2019-01-14T12:53:40.308Z,30.37
2019-01-14T12:56:08.074Z,13.83
2019-01-14T12:58:35.128Z,17.17
2019-01-14T13:01:02.172Z,30.57
2019-01-14T13:03:29.527Z,23.87
2019-01-14T13:05:56.585Z,35.50
2019-01-14T13:08:23.624Z,26.97
2019-01-14T13:10:50.673Z,31.37
2019-01-14T13:13:17.726Z,31.90
2019-01-14T13:15:44.789Z,33.87
2019-01-14T13:18:11.820Z,35.37
2019-01-14T13:20:38.874Z,37.20
2019-01-14T13:23:05.917Z,36.97
2019-01-14T13:25:32.966Z,38.90
2019-01-14T13:28:01.143Z,36.50
2019-01-14T13:30:28.266Z,37.77
2019-01-14T13:32:55.342Z,35.60
2019-01-14T13:35:22.333Z,36.03
2019-01-14T13:37:49.435Z,38.17
2019-01-14T13:40:16.484Z,37.90
2019-01-14T13:42:43.634Z,36.90
2019-01-14T13:45:11.554Z,37.07
2019-01-14T13:47:38.551Z,35.80
2019-01-14T13:50:05.818Z,37.87
2019-01-14T13:52:32.853Z,36.63
2019-01-14T13:55:00.007Z,36.90
2019-01-14T13:57:27.059Z,34.67
2019-01-14T13:59:54.102Z,38.03
2019-01-14T14:02:21.220Z,36.23
2019-01-14T14:04:48.305Z,35.53
2019-01-14T14:07:15.355Z,35.57
2019-01-14T14:09:42.606Z,37.93
2019-01-14T14:12:09.857Z,36.63
2019-01-14T14:14:36.919Z,34.33
2019-01-14T14:17:03.918Z,36.37
2019-01-14T14:19:30.905Z,38.20
2019-01-14T14:21:58.050Z,34.97
2019-01-14T14:24:25.126Z,37.90
2019-01-14T14:26:52.099Z,37.53
2019-01-14T14:29:19.298Z,37.00
2019-01-14T14:31:46.347Z,38.17
2019-01-14T14:34:13.345Z,39.23
2019-01-14T14:36:42.492Z,38.83
2019-01-14T14:39:09.562Z,39.07
2019-01-14T14:41:36.588Z,38.47
2019-01-14T14:44:05.383Z,38.60
2019-01-14T14:46:32.426Z,39.30
2019-01-14T14:49:01.221Z,38.73
2019-01-14T14:51:28.221Z,40.20
2019-01-14T14:53:55.215Z,38.23
2019-01-14T14:56:22.262Z,39.77
2019-01-14T14:58:49.307Z,37.60
2019-01-14T15:01:16.361Z,39.10
2019-01-14T15:03:43.302Z,37.93
2019-01-14T15:06:10.356Z,38.57
2019-01-14T15:08:37.404Z,39.83
2019-01-14T15:11:04.448Z,44.67
2019-01-14T15:13:31.502Z,42.33
2019-01-14T15:15:58.545Z,45.80
2019-01-14T15:18:25.594Z,50.47
2019-01-14T15:20:52.744Z,41.77
2019-01-14T15:23:19.798Z,40.77
2019-01-14T15:25:46.841Z,41.60
2019-01-14T15:28:13.891Z,40.83
2019-01-14T15:30:40.944Z,48.50
2019-01-14T15:33:08.101Z,45.20
2019-01-14T15:35:35.139Z,44.13
2019-01-14T15:38:02.305Z,45.20
2019-01-14T15:40:29.337Z,85.80
2019-01-14T15:42:56.406Z,55.30
2019-01-14T15:45:23.564Z,46.53
2019-01-14T15:47:50.586Z,40.63
2019-01-14T15:50:17.538Z,43.53
2019-01-14T15:52:44.581Z,40.23
2019-01-14T15:55:11.630Z,39.37
2019-01-14T15:57:40.420Z,38.53
2019-01-14T16:00:15.299Z,37.80
2019-01-14T16:02:42.297Z,41.97
2019-01-14T16:05:09.244Z,37.00
2019-01-14T16:07:36.295Z,37.00
2019-01-14T16:10:10.344Z,39.83
2019-01-14T16:12:30.599Z,40.93
2019-01-14T16:14:59.285Z,37.33
2019-01-14T16:17:26.280Z,38.70
2019-01-14T16:19:53.280Z,32.63
2019-01-14T16:22:20.332Z,36.43
2019-01-14T16:24:47.374Z,38.60
2019-01-14T16:27:14.379Z,41.13
2019-01-14T16:29:43.416Z,40.20
2019-01-14T16:32:10.811Z,40.10
2019-01-14T16:34:37.820Z,39.03
2019-01-14T16:37:08.658Z,36.03
2019-01-14T16:39:36.552Z,36.30
2019-01-14T16:42:04.088Z,36.90
2019-01-14T16:44:31.140Z,34.60
2019-01-14T16:46:59.003Z,38.27
2019-01-14T16:49:27.689Z,42.80
2019-01-14T16:51:54.743Z,39.43
2019-01-14T16:54:21.788Z,39.10
2019-01-14T16:56:49.658Z,40.40
2019-01-14T16:59:16.702Z,38.13
2019-01-14T17:01:43.752Z,34.47
2019-01-14T17:04:10.902Z,31.97
2019-01-14T17:06:37.956Z,34.27
2019-01-14T17:09:05.112Z,39.23
2019-01-14T17:14:15.281Z,42.13
2019-01-14T17:16:42.534Z,42.20
2019-01-14T17:19:20.210Z,43.17
2019-01-14T17:21:47.281Z,56.60
2019-01-14T17:24:14.324Z,44.73
2019-01-14T17:26:41.374Z,46.90
2019-01-14T17:29:08.732Z,43.97
2019-01-14T17:31:35.885Z,39.70
2019-01-14T17:34:02.928Z,41.40
2019-01-14T17:36:29.978Z,44.47
2019-01-14T17:38:57.031Z,48.60
2019-01-14T17:41:24.075Z,48.70
2019-01-14T17:43:51.025Z,49.13
2019-01-14T17:46:18.069Z,96.97
2019-01-14T17:48:45.117Z,54.60
2019-01-14T17:51:12.171Z,48.63
2019-01-14T17:53:39.169Z,46.40
2019-01-14T17:56:06.220Z,42.33
2019-01-14T17:58:33.210Z,43.70
2019-01-14T18:01:00.262Z,41.30
2019-01-14T18:03:27.779Z,39.47
2019-01-14T18:05:54.770Z,38.30
2019-01-14T18:08:22.940Z,42.73
2019-01-14T18:10:49.994Z,38.77
2019-01-14T18:13:17.036Z,34.63
2019-01-14T18:15:44.128Z,36.30
2019-01-14T18:18:11.139Z,41.47
2019-01-14T18:20:38.340Z,39.70
2019-01-14T18:23:05.441Z,32.30
2019-01-14T18:25:32.484Z,33.53
2019-01-14T18:27:59.734Z,33.80
2019-01-14T18:30:26.683Z,42.50
2019-01-14T18:32:53.735Z,37.53
2019-01-14T18:35:21.502Z,36.77
2019-01-14T18:37:50.287Z,41.70
2019-01-14T18:40:18.921Z,47.70
2019-01-14T18:42:45.065Z,44.53
2019-01-14T18:45:13.029Z,50.43
2019-01-14T18:47:40.119Z,41.47
2019-01-14T18:50:08.860Z,40.13
2019-01-14T18:52:35.862Z,40.73
2019-01-14T18:55:02.913Z,80.40
2019-01-14T18:57:29.952Z,49.60
2019-01-14T18:59:57.057Z,41.47
2019-01-14T19:02:24.157Z,44.57
2019-01-14T19:04:51.201Z,44.80
2019-01-14T19:07:18.253Z,44.70
2019-01-14T19:09:45.305Z,42.03
2019-01-14T19:12:12.243Z,42.30
2019-01-14T19:14:39.297Z,45.57
2019-01-14T19:17:06.344Z,42.77
2019-01-14T19:19:35.025Z,42.03
2019-01-14T19:22:03.245Z,43.20
2019-01-14T19:24:32.253Z,34.13
2019-01-14T19:26:59.197Z,40.40
2019-01-14T19:29:29.544Z,38.23
2019-01-14T19:31:59.940Z,41.17
2019-01-14T19:34:27.268Z,30.27
2019-01-14T19:36:54.325Z,26.23
2019-01-14T19:39:21.348Z,29.00
2019-01-14T19:41:52.343Z,21.57
2019-01-14T19:44:19.644Z,35.47
2019-01-14T19:46:46.698Z,35.83
2019-01-14T19:49:13.901Z,34.30
2019-01-14T19:51:41.309Z,33.17
2019-01-14T19:54:08.731Z,31.30
2019-01-14T19:56:35.981Z,33.77
2019-01-14T19:59:03.066Z,30.07
2019-01-14T20:01:30.109Z,28.80
2019-01-14T20:03:57.160Z,15.80
2019-01-14T20:06:24.213Z,24.93
2019-01-14T20:08:51.257Z,28.67
2019-01-14T20:11:22.922Z,25.27
2019-01-14T20:13:54.701Z,26.73
2019-01-14T20:16:26.881Z,18.20
2019-01-14T20:18:58.009Z,8.27
2019-01-14T20:21:26.058Z,10.60
2019-01-14T20:23:57.712Z,5.47
2019-01-14T20:26:27.287Z,3.17
2019-01-14T20:28:54.271Z,2.60
2019-01-14T20:31:21.320Z,2.13
2019-01-14T20:33:48.879Z,0.50
2019-01-14T20:36:15.928Z,0.83
2019-01-14T20:38:42.925Z,0.43
2019-01-14T20:41:16.327Z,1.33
2019-01-14T20:43:37.174Z,0.63
2019-01-14T20:46:04.247Z,1.47
2019-01-14T20:48:31.276Z,1.40
2019-01-14T20:51:00.163Z,0.70
2019-01-14T20:53:27.214Z,0.60
2019-01-14T20:55:54.213Z,1.10
2019-01-14T20:58:21.207Z,0.87
2019-01-14T21:00:48.259Z,1.77
2019-01-14T21:03:15.546Z,2.20
2019-01-14T21:05:42.501Z,0.50
2019-01-14T21:08:09.502Z,3.10
2019-01-14T21:10:36.556Z,4.07
2019-01-14T21:13:03.601Z,2.20
2019-01-14T21:15:30.648Z,1.80
2019-01-14T21:17:57.703Z,1.33
2019-01-14T21:20:24.746Z,2.37
2019-01-14T21:22:52.410Z,3.60
2019-01-14T21:25:19.465Z,3.90
2019-01-14T21:27:46.505Z,5.37
2019-01-14T21:30:15.545Z,2.67
2019-01-14T21:32:42.857Z,2.80
2019-01-14T21:35:09.801Z,2.53
2019-01-14T21:37:36.849Z,2.50
2019-01-14T21:40:04.616Z,3.13
2019-01-14T21:42:31.613Z,1.60
2019-01-14T21:44:58.559Z,3.13
2019-01-14T21:47:32.501Z,1.67
2019-01-14T21:49:53.869Z,1.60
2019-01-14T21:52:20.986Z,1.87
2019-01-14T21:54:48.041Z,1.23
2019-01-14T21:57:15.080Z,1.47
2019-01-14T21:59:42.132Z,1.60
2019-01-14T22:02:09.185Z,2.00
2019-01-14T22:04:36.232Z,3.17
2019-01-14T22:07:04.044Z,1.60
2019-01-14T22:09:31.049Z,1.40
2019-01-14T22:11:57.993Z,1.00
2019-01-14T22:14:25.039Z,3.90
2019-01-14T22:16:52.091Z,3.73
2019-01-14T22:19:19.083Z,2.00
2019-01-14T22:21:46.096Z,2.30
2019-01-14T22:24:13.128Z,2.50
2019-01-14T22:26:40.177Z,1.57
2019-01-14T22:29:07.230Z,0.67
2019-01-14T22:31:34.273Z,0.80
2019-01-14T22:34:01.322Z,0.33
2019-01-14T22:36:28.990Z,0.83
2019-01-14T22:38:56.034Z,1.50
2019-01-14T22:41:22.986Z,0.97
2019-01-14T22:43:50.027Z,1.03
2019-01-14T22:46:17.461Z,1.03
2019-01-14T22:48:45.666Z,1.73
2019-01-14T22:51:12.709Z,1.53
2019-01-14T22:53:39.759Z,1.37
2019-01-14T22:56:06.812Z,1.67
2019-01-14T22:58:33.855Z,1.00
2019-01-14T23:01:23.512Z,0.80
2019-01-14T23:04:10.396Z,1.10
2019-01-14T23:06:37.411Z,0.77
2019-01-14T23:09:04.549Z,1.10
2019-01-14T23:11:31.594Z,0.90
2019-01-14T23:13:58.725Z,0.67
2019-01-14T23:16:25.691Z,1.37
2019-01-14T23:18:52.740Z,1.23
2019-01-14T23:21:19.793Z,1.40
2019-01-14T23:23:46.788Z,1.07
2019-01-14T23:26:13.729Z,0.83
2019-01-14T23:28:41.600Z,1.20
2019-01-14T23:31:10.244Z,1.00
2019-01-14T23:33:37.283Z,1.10
2019-01-14T23:36:04.332Z,1.13
2019-01-14T23:38:32.099Z,1.23
2019-01-14T23:40:59.150Z,0.63
2019-01-14T23:43:26.194Z,0.97
2019-01-14T23:45:53.604Z,1.10
2019-01-14T23:48:20.604Z,0.40
2019-01-14T23:50:47.647Z,0.97
2019-01-14T23:53:15.004Z,0.60
2019-01-14T23:55:42.056Z,0.60
2019-01-14T23:58:09.100Z,0.70
